createdAt,value
2019-02-07T00:00:34.194Z,5.5
2019-02-07T00:05:31.945Z,5.5
2019-02-07T00:10:29.644Z,5.5
2019-02-07T00:15:27.985Z,4.4
2019-02-07T00:20:25.838Z,5.5
2019-02-07T00:25:23.945Z,5.4
2019-02-07T00:30:22.291Z,4.6
2019-02-07T00:35:19.599Z,5.4
2019-02-07T00:40:17.223Z,5.4
2019-02-07T00:45:15.489Z,5.2
2019-02-07T00:50:13.429Z,5.4
2019-02-07T00:55:11.356Z,4.3
2019-02-07T01:00:09.598Z,5.3
2019-02-07T01:05:07.478Z,5.3
2019-02-07T01:10:05.468Z,5.3
2019-02-07T01:15:03.724Z,5.3
2019-02-07T01:20:01.466Z,5.3
2019-02-07T01:24:59.317Z,5.3
2019-02-07T01:29:57.306Z,5.3
2019-02-07T01:34:55.306Z,5.2
2019-02-07T01:39:53.172Z,4.7
2019-02-07T01:44:51.123Z,5.2
2019-02-07T01:49:48.996Z,5.2
2019-02-07T01:54:46.849Z,5.2
2019-02-07T01:59:44.607Z,5.2
2019-02-07T02:04:41.983Z,5.2
2019-02-07T02:09:39.670Z,5.1
2019-02-07T02:14:37.502Z,5.1
2019-02-07T02:19:35.416Z,5.1
2019-02-07T02:24:33.215Z,5.1
2019-02-07T02:29:31.020Z,5.1
2019-02-07T02:34:28.769Z,5.1
2019-02-07T02:39:26.606Z,5
2019-02-07T02:44:24.395Z,5
2019-02-07T02:49:22.373Z,5
2019-02-07T02:54:19.826Z,5
2019-02-07T02:59:17.692Z,5
2019-02-07T03:04:15.892Z,4.9
2019-02-07T03:09:13.817Z,3.9
2019-02-07T03:14:11.266Z,4.9
2019-02-07T03:19:09.693Z,4.9
2019-02-07T03:24:07.209Z,4.9
2019-02-07T03:29:05.096Z,4.9
2019-02-07T03:34:03.010Z,4.8
2019-02-07T03:39:00.803Z,4.8
2019-02-07T03:43:58.569Z,4.8
2019-02-07T03:48:56.533Z,3.8
2019-02-07T03:53:54.345Z,4.8
2019-02-07T03:58:52.112Z,4.7
2019-02-07T04:03:50.065Z,4.7
2019-02-07T04:08:47.968Z,4.7
2019-02-07T04:13:46.059Z,4.1
2019-02-07T04:18:43.404Z,4.7
2019-02-07T04:23:41.479Z,4.6
2019-02-07T04:28:38.634Z,3.6
2019-02-07T04:33:36.084Z,4.6
2019-02-07T04:38:33.783Z,4.6
2019-02-07T04:43:31.636Z,4.6
2019-02-07T04:48:29.241Z,3.8
2019-02-07T04:53:26.943Z,4
2019-02-07T04:58:24.906Z,4.5
2019-02-07T05:03:22.883Z,3.9
2019-02-07T05:08:20.539Z,4.5
2019-02-07T05:13:18.379Z,4.4
2019-02-07T05:18:16.364Z,4.4
2019-02-07T05:23:13.966Z,3.8
2019-02-07T05:28:11.914Z,3.8
2019-02-07T05:33:09.635Z,3.8
2019-02-07T05:38:07.846Z,4.3
2019-02-07T05:43:05.786Z,4.3
2019-02-07T05:48:03.674Z,3.7
2019-02-07T05:53:02.052Z,4.3
2019-02-07T05:58:00.032Z,4.3
2019-02-07T06:02:57.992Z,4.3
2019-02-07T06:07:56.599Z,4.2
2019-02-07T06:12:54.607Z,4.2
2019-02-07T06:17:52.460Z,4.2
2019-02-07T06:22:49.627Z,4.2
2019-02-07T06:27:47.540Z,4.2
2019-02-07T06:32:45.306Z,4.1
2019-02-07T06:37:43.024Z,4.1
2019-02-07T06:42:41.113Z,4.1
2019-02-07T06:47:39.155Z,4.1
2019-02-07T06:52:37.178Z,3.5
2019-02-07T06:57:35.246Z,3.4
2019-02-07T07:02:33.129Z,4
2019-02-07T07:07:30.976Z,4
2019-02-07T07:12:29.129Z,3.4
2019-02-07T07:17:27.496Z,4
2019-02-07T07:22:25.252Z,4
2019-02-07T07:27:22.896Z,3.9
2019-02-07T07:32:21.301Z,3.9
2019-02-07T07:37:19.614Z,3.9
2019-02-07T07:42:18.033Z,3.9
2019-02-07T07:47:15.928Z,3.9
2019-02-07T07:52:14.428Z,3.9
2019-02-07T07:57:12.343Z,3.9
2019-02-07T08:02:10.198Z,3.9
2019-02-07T08:07:07.932Z,3.9
2019-02-07T08:12:06.069Z,3.9
2019-02-07T08:17:03.888Z,3.1
2019-02-07T08:22:01.780Z,3.9
2019-02-07T08:26:59.797Z,3.8
2019-02-07T08:31:57.685Z,3.8
2019-02-07T08:36:56.096Z,3.3
2019-02-07T08:41:53.393Z,3.4
2019-02-07T08:46:51.613Z,3.8
2019-02-07T08:51:49.702Z,3.7
2019-02-07T08:56:47.035Z,3.9
2019-02-07T09:01:44.970Z,3.9
2019-02-07T09:06:42.922Z,3.9
2019-02-07T09:11:40.731Z,3.9
2019-02-07T09:16:38.646Z,3.9
2019-02-07T09:21:36.575Z,3.9
2019-02-07T09:26:34.472Z,3.9
2019-02-07T09:31:32.378Z,3.9
2019-02-07T09:36:30.342Z,3.9
2019-02-07T09:41:28.349Z,3.9
2019-02-07T09:46:25.910Z,3.9
2019-02-07T09:51:23.486Z,3.1
2019-02-07T09:56:21.517Z,3.4
2019-02-07T10:01:19.526Z,4
2019-02-07T10:06:17.447Z,3.2
2019-02-07T10:11:15.384Z,4
2019-02-07T10:16:13.216Z,4
2019-02-07T10:21:11.407Z,3.1
2019-02-07T10:26:09.288Z,4
2019-02-07T10:31:07.089Z,4
2019-02-07T10:36:05.060Z,4
2019-02-07T10:41:03.464Z,4
2019-02-07T10:46:00.822Z,4
2019-02-07T10:50:58.757Z,4
2019-02-07T10:55:57.300Z,4.1
2019-02-07T11:00:55.108Z,4.1
2019-02-07T11:05:54.584Z,4.1
2019-02-07T11:10:52.719Z,4.1
2019-02-07T11:15:50.638Z,4.1
2019-02-07T11:20:48.823Z,3.2
2019-02-07T11:25:47.268Z,4.1
2019-02-07T11:30:45.369Z,4.2
2019-02-07T11:35:43.406Z,4.2
2019-02-07T11:40:41.568Z,4.2
2019-02-07T11:45:39.566Z,4.2
2019-02-07T11:50:37.679Z,4
2019-02-07T11:55:35.685Z,4.2
2019-02-07T12:00:33.822Z,4.3
2019-02-07T12:05:31.826Z,4.3
2019-02-07T12:10:30.386Z,4.3
2019-02-07T12:15:28.474Z,4.3
2019-02-07T12:20:27.050Z,4.3
2019-02-07T12:25:25.070Z,3.8
2019-02-07T12:30:23.139Z,3.8
2019-02-07T12:35:20.978Z,4.4
2019-02-07T12:40:19.464Z,4.4
2019-02-07T12:45:17.232Z,4.5
2019-02-07T12:50:15.193Z,4.5
2019-02-07T12:55:13.567Z,4
2019-02-07T13:00:11.433Z,4.5
2019-02-07T13:05:09.586Z,4.6
2019-02-07T13:10:07.864Z,4
2019-02-07T13:15:05.457Z,4.6
2019-02-07T13:20:03.612Z,4.7
2019-02-07T13:25:01.731Z,4.7
2019-02-07T13:29:59.645Z,4.7
2019-02-07T13:34:57.491Z,4.7
2019-02-07T13:39:55.461Z,4.8
2019-02-07T13:44:52.899Z,4.8
2019-02-07T13:49:52.148Z,4.8
2019-02-07T13:54:49.675Z,4.9
2019-02-07T13:59:47.598Z,4.9
2019-02-07T14:04:45.381Z,4.9
2019-02-07T14:09:43.350Z,4.9
2019-02-07T14:14:41.318Z,5
2019-02-07T14:19:39.224Z,5
2019-02-07T14:24:37.633Z,4.5
2019-02-07T14:29:35.589Z,5.1
2019-02-07T14:34:33.436Z,5.1
2019-02-07T14:39:31.534Z,5.1
2019-02-07T14:44:29.684Z,5.1
2019-02-07T14:49:27.767Z,5.1
2019-02-07T14:54:25.343Z,5.2
2019-02-07T14:59:23.241Z,5
2019-02-07T15:04:21.145Z,5.2
2019-02-07T15:09:19.441Z,4.5
2019-02-07T15:14:17.272Z,5.2
2019-02-07T15:19:15.347Z,5.3
2019-02-07T15:24:13.180Z,5.3
2019-02-07T15:29:11.117Z,4.2
2019-02-07T15:34:09.329Z,5.3
2019-02-07T15:39:07.524Z,5.3
2019-02-07T15:44:05.413Z,5.4
2019-02-07T15:49:03.443Z,5.4
2019-02-07T15:54:01.439Z,5.4
2019-02-07T15:58:59.404Z,5.4
2019-02-07T16:03:57.296Z,5.4
2019-02-07T16:08:55.005Z,5.4
2019-02-07T16:13:52.961Z,5.4
2019-02-07T16:18:51.015Z,5.4
2019-02-07T16:23:49.096Z,5.4
2019-02-07T16:28:46.414Z,5.4
2019-02-07T16:33:44.346Z,5.5
2019-02-07T16:38:42.341Z,5.5
2019-02-07T16:43:39.901Z,5.5
2019-02-07T16:48:37.325Z,5.5
2019-02-07T16:53:35.227Z,5.5
2019-02-07T16:58:33.869Z,4.5
2019-02-07T17:03:31.941Z,5.5
2019-02-07T17:08:30.069Z,5.5
2019-02-07T17:13:28.594Z,5.5
2019-02-07T17:18:26.611Z,5.5
2019-02-07T17:23:24.609Z,5.5
2019-02-07T17:28:23.257Z,5.5
2019-02-07T17:33:21.286Z,5.5
2019-02-07T17:38:19.292Z,4.7
2019-02-07T17:43:17.080Z,5
2019-02-07T17:48:15.004Z,5.5
2019-02-07T17:53:12.774Z,5.5
2019-02-07T17:58:10.818Z,5.5
2019-02-07T18:03:08.871Z,5.5
2019-02-07T18:08:06.735Z,5.5
2019-02-07T18:13:04.442Z,5.5
2019-02-07T18:18:02.483Z,5.5
2019-02-07T18:23:00.463Z,5.5
2019-02-07T18:27:58.273Z,5.5
2019-02-07T18:32:56.507Z,5.5
2019-02-07T18:37:54.362Z,4.7
2019-02-07T18:42:52.372Z,5.4
2019-02-07T18:47:50.134Z,5.4
2019-02-07T18:52:48.102Z,5.4
2019-02-07T18:57:46.025Z,4.7
2019-02-07T19:02:44.210Z,5.4
2019-02-07T19:07:42.192Z,5.4
2019-02-07T19:12:40.191Z,5.4
2019-02-07T19:17:38.121Z,5.4
2019-02-07T19:22:36.051Z,5.4
2019-02-07T19:27:33.381Z,5.3
2019-02-07T19:32:31.233Z,5.3
2019-02-07T19:37:29.327Z,5.3
2019-02-07T19:42:27.270Z,5.3
2019-02-07T19:47:25.218Z,4.2
2019-02-07T19:52:23.410Z,5.3
2019-02-07T19:57:21.763Z,4.7
2019-02-07T20:02:19.582Z,5.2
2019-02-07T20:07:17.788Z,5.2
2019-02-07T20:12:15.906Z,5.2
2019-02-07T20:17:13.603Z,4.5
2019-02-07T20:22:19.727Z,5.2
2019-02-07T20:27:17.020Z,4.7
2019-02-07T20:32:14.504Z,5.2
2019-02-07T20:37:12.573Z,5.2
2019-02-07T20:42:10.471Z,5.2
2019-02-07T20:47:08.529Z,4.4
2019-02-07T20:52:06.503Z,5.1
2019-02-07T20:57:04.950Z,4.9
2019-02-07T21:02:03.019Z,5.1
2019-02-07T21:07:00.837Z,5.1
2019-02-07T21:11:58.803Z,4.5
2019-02-07T21:16:56.873Z,5
2019-02-07T21:21:54.798Z,5
2019-02-07T21:26:52.689Z,5
2019-02-07T21:31:51.001Z,5
2019-02-07T21:36:49.113Z,5
2019-02-07T21:41:47.068Z,4.9
2019-02-07T21:46:45.109Z,4.9
2019-02-07T21:51:43.037Z,4.9
2019-02-07T21:56:40.937Z,3.8
2019-02-07T22:01:38.867Z,4.9
2019-02-07T22:06:36.901Z,4.9
2019-02-07T22:11:34.707Z,4.9
2019-02-07T22:16:32.814Z,4.3
2019-02-07T22:21:30.826Z,4.3
2019-02-07T22:26:28.790Z,4.2
2019-02-07T22:31:26.746Z,4.8
2019-02-07T22:36:25.230Z,4.3
2019-02-07T22:41:23.378Z,4.8
2019-02-07T22:46:21.228Z,4.8
2019-02-07T22:51:19.566Z,4.7
2019-02-07T22:56:17.569Z,4.7
2019-02-07T23:01:15.388Z,4.7
2019-02-07T23:06:13.414Z,4.7
2019-02-07T23:11:10.825Z,4.7
2019-02-07T23:16:08.635Z,4.7
2019-02-07T23:21:06.568Z,4.7
2019-02-07T23:26:04.314Z,4.6
2019-02-07T23:31:01.589Z,4.6
2019-02-07T23:35:59.664Z,4.6
2019-02-07T23:40:57.778Z,4.1
2019-02-07T23:45:55.627Z,4.6
2019-02-07T23:50:53.438Z,4.6
2019-02-07T23:55:51.950Z,4.6
